createdAt,value
2018-12-22T00:00:13.506Z,-4.1
2018-12-22T00:01:03.604Z,-4.1
2018-12-22T00:01:54.394Z,-4.1
2018-12-22T00:02:44.044Z,-4.1
2018-12-22T00:03:33.542Z,-4.2
2018-12-22T00:04:23.565Z,-4.1
2018-12-22T00:05:13.619Z,-4.1
2018-12-22T00:06:03.691Z,-4.1
2018-12-22T00:06:53.744Z,-4.1
2018-12-22T00:07:44.312Z,-4.1
2018-12-22T00:08:33.834Z,-4
2018-12-22T00:09:24.184Z,-4.1
2018-12-22T00:10:14.237Z,-4.1
2018-12-22T00:11:04.014Z,-4.1
2018-12-22T00:11:54.437Z,-4.1
2018-12-22T00:12:44.414Z,-4.1
2018-12-22T00:13:34.436Z,-4.1
2018-12-22T00:14:24.519Z,-4.1
2018-12-22T00:32:36.815Z,-3.9
2018-12-22T00:33:27.108Z,-4
2018-12-22T00:34:17.162Z,-4
2018-12-22T00:35:07.228Z,-4
2018-12-22T00:35:57.033Z,-4
2018-12-22T00:36:47.324Z,-4.1
2018-12-22T00:37:37.625Z,-4.2
2018-12-22T00:38:27.445Z,-4.1
2018-12-22T00:39:17.202Z,-4.1
2018-12-22T00:40:07.273Z,-4.1
2018-12-22T00:40:57.597Z,-4.1
2018-12-22T00:41:47.410Z,-4.1
2018-12-22T00:42:37.732Z,-4.1
2018-12-22T00:43:26.662Z,-4.1
2018-12-22T00:44:17.546Z,-4
2018-12-22T00:45:07.875Z,-4
2018-12-22T00:45:57.660Z,-4
2018-12-22T00:46:48.005Z,-3.9
2018-12-22T00:47:38.053Z,-4
2018-12-22T00:48:28.077Z,-4.1
2018-12-22T00:49:17.890Z,-4.2
2018-12-22T00:50:07.966Z,-4.3
2018-12-22T00:50:58.008Z,-4.4
2018-12-22T00:51:48.135Z,-4.4
2018-12-22T00:52:37.631Z,-4.4
2018-12-22T00:53:28.458Z,-4.4
2018-12-22T00:54:20.220Z,-4.4
2018-12-22T00:55:08.288Z,-4.3
2018-12-22T00:55:58.425Z,-4.3
2018-12-22T00:56:48.401Z,-4.3
2018-12-22T00:57:38.465Z,-4.3
2018-12-22T00:58:33.704Z,-4.3
2018-12-22T00:59:18.853Z,-4.3
2018-12-22T01:00:08.760Z,-4.2
2018-12-22T01:00:59.006Z,-4.1
2018-12-22T01:01:48.476Z,-4.1
2018-12-22T01:02:39.074Z,-4.3
2018-12-22T01:03:28.858Z,-4.3
2018-12-22T01:04:19.193Z,-4.3
2018-12-22T01:05:08.966Z,-4.2
2018-12-22T01:05:59.312Z,-4.2
2018-12-22T01:06:49.393Z,-4.1
2018-12-22T01:07:39.415Z,-4.2
2018-12-22T01:08:29.483Z,-4.3
2018-12-22T01:09:19.263Z,-4.2
2018-12-22T01:10:09.589Z,-4.3
2018-12-22T01:10:59.665Z,-4.3
2018-12-22T01:11:49.488Z,-4.3
2018-12-22T01:12:39.504Z,-4.2
2018-12-22T01:13:29.543Z,-4.2
2018-12-22T01:14:19.617Z,-4.1
2018-12-22T01:15:09.655Z,-4.1
2018-12-22T01:15:59.998Z,-4.2
2018-12-22T01:16:49.498Z,-4.2
2018-12-22T01:17:39.838Z,-4.2
2018-12-22T01:18:29.888Z,-4.1
2018-12-22T01:19:20.260Z,-4.2
2018-12-22T01:20:59.780Z,-4.1
2018-12-22T01:21:50.405Z,-4.1
2018-12-22T01:22:39.599Z,-4.1
2018-12-22T01:23:30.495Z,-4.1
2018-12-22T01:24:20.560Z,-4.2
2018-12-22T01:25:10.607Z,-4.2
2018-12-22T01:26:00.375Z,-4.1
2018-12-22T01:26:50.713Z,-4.2
2018-12-22T01:27:41.081Z,-4.1
2018-12-22T01:28:39.175Z,-4.1
2018-12-22T01:29:20.651Z,-4.2
2018-12-22T01:30:10.974Z,-4.3
2018-12-22T01:31:00.774Z,-4.3
2018-12-22T01:31:50.787Z,-4.3
2018-12-22T01:32:41.116Z,-4.3
2018-12-22T01:33:30.915Z,-4.3
2018-12-22T01:34:20.684Z,-4.3
2018-12-22T01:35:11.296Z,-4.3
2018-12-22T01:36:01.370Z,-4.3
2018-12-22T01:36:51.135Z,-4.3
2018-12-22T01:37:41.204Z,-4.3
2018-12-22T01:38:31.221Z,-4.3
2018-12-22T01:39:21.044Z,-4.3
2018-12-22T01:40:11.637Z,-4.4
2018-12-22T01:41:01.667Z,-4.4
2018-12-22T01:41:51.471Z,-4.3
2018-12-22T01:42:41.799Z,-4.3
2018-12-22T01:43:31.884Z,-4.3
2018-12-22T01:44:21.649Z,-4.3
2018-12-22T01:45:11.694Z,-4.4
2018-12-22T01:46:01.959Z,-4.4
2018-12-22T01:46:51.544Z,-4.4
2018-12-22T01:47:41.333Z,-4.4
2018-12-22T01:48:32.047Z,-4.4
2018-12-22T01:49:22.246Z,-4.4
2018-12-22T01:50:12.069Z,-4.4
2018-12-22T01:51:02.531Z,-4.4
2018-12-22T01:51:52.629Z,-4.4
2018-12-22T01:52:41.924Z,-4.4
2018-12-22T01:53:32.801Z,-4.4
2018-12-22T01:54:22.038Z,-4.4
2018-12-22T01:55:12.638Z,-4.4
2018-12-22T01:56:02.156Z,-4.4
2018-12-22T01:56:52.498Z,-4.5
2018-12-22T01:57:42.270Z,-4.6
2018-12-22T01:58:32.038Z,-4.5
2018-12-22T01:59:22.683Z,-4.5
2018-12-22T02:00:12.715Z,-4.5
2018-12-22T02:01:02.786Z,-4.5
2018-12-22T02:01:53.108Z,-4.5
2018-12-22T02:02:42.888Z,-4.6
2018-12-22T02:03:32.915Z,-4.7
2018-12-22T02:04:23.000Z,-4.8
2018-12-22T02:05:13.340Z,-4.7
2018-12-22T02:06:03.110Z,-4.6
2018-12-22T02:06:53.449Z,-4.5
2018-12-22T02:07:43.505Z,-4.6
2018-12-22T02:08:33.293Z,-4.8
2018-12-22T02:09:23.128Z,-4.8
2018-12-22T02:10:13.755Z,-4.8
2018-12-22T02:11:03.450Z,-4.8
2018-12-22T02:11:53.787Z,-4.7
2018-12-22T02:12:43.828Z,-4.8
2018-12-22T02:13:33.614Z,-4.8
2018-12-22T02:14:23.954Z,-4.9
2018-12-22T02:15:14.000Z,-4.9
2018-12-22T02:16:03.792Z,-4.9
2018-12-22T02:16:53.833Z,-5
2018-12-22T02:17:44.174Z,-4.9
2018-12-22T02:18:34.210Z,-4.7
2018-12-22T02:19:24.590Z,-4.7
2018-12-22T02:20:13.797Z,-4.7
2018-12-22T02:21:04.394Z,-4.7
2018-12-22T02:21:54.195Z,-4.7
2018-12-22T02:22:44.509Z,-4.6
2018-12-22T02:23:34.872Z,-4.7
2018-12-22T02:24:24.677Z,-4.8
2018-12-22T02:25:14.686Z,-4.7
2018-12-22T02:26:04.467Z,-4.8
2018-12-22T02:26:54.296Z,-4.8
2018-12-22T02:27:44.857Z,-4.8
2018-12-22T02:28:34.364Z,-4.8
2018-12-22T02:29:25.307Z,-4.7
2018-12-22T02:30:14.784Z,-4.7
2018-12-22T02:31:04.862Z,-4.7
2018-12-22T02:31:54.633Z,-4.8
2018-12-22T02:32:45.059Z,-4.8
2018-12-22T02:33:35.245Z,-4.8
2018-12-22T02:34:24.764Z,-4.8
2018-12-22T02:35:15.362Z,-4.8
2018-12-22T02:36:05.035Z,-4.7
2018-12-22T02:36:54.942Z,-4.6
2018-12-22T02:37:45.276Z,-4.8
2018-12-22T02:38:35.609Z,-4.9
2018-12-22T02:39:25.479Z,-4.8
2018-12-22T02:40:15.574Z,-4.8
2018-12-22T02:41:05.764Z,-4.8
2018-12-22T02:41:55.519Z,-4.8
2018-12-22T02:42:45.604Z,-4.8
2018-12-22T02:43:35.649Z,-4.8
2018-12-22T02:44:25.726Z,-4.9
2018-12-22T02:45:16.356Z,-4.9
2018-12-22T02:46:06.128Z,-4.8
2018-12-22T02:46:55.879Z,-4.8
2018-12-22T02:47:46.203Z,-4.8
2018-12-22T02:48:35.878Z,-4.9
2018-12-22T02:49:26.125Z,-4.8
2018-12-22T02:50:16.421Z,-4.8
2018-12-22T02:51:05.880Z,-4.8
2018-12-22T02:51:56.495Z,-4.8
2018-12-22T02:52:46.523Z,-4.8
2018-12-22T02:53:36.621Z,-4.8
2018-12-22T02:54:26.670Z,-4.7
2018-12-22T02:55:16.724Z,-4.7
2018-12-22T02:56:06.514Z,-4.7
2018-12-22T02:56:56.545Z,-4.7
2018-12-22T02:57:46.338Z,-4.8
2018-12-22T02:58:36.843Z,-4.8
2018-12-22T02:59:27.010Z,-4.8
2018-12-22T03:00:17.019Z,-4.8
2018-12-22T03:01:06.835Z,-4.8
2018-12-22T03:01:56.903Z,-4.8
2018-12-22T03:02:46.973Z,-4.6
2018-12-22T03:03:37.297Z,-4.6
2018-12-22T03:04:26.325Z,-4.5
2018-12-22T03:05:16.822Z,-4.5
2018-12-22T03:06:07.208Z,-4.4
2018-12-22T03:06:57.118Z,-4.4
2018-12-22T03:07:47.037Z,-4.5
2018-12-22T03:08:37.665Z,-4.5
2018-12-22T03:09:27.493Z,-4.5
2018-12-22T03:10:18.235Z,-4.5
2018-12-22T03:11:07.645Z,-4.5
2018-12-22T03:11:57.848Z,-4.5
2018-12-22T03:12:47.697Z,-4.4
2018-12-22T03:13:37.672Z,-4.4
2018-12-22T03:14:28.044Z,-4.4
2018-12-22T03:15:17.814Z,-4.5
2018-12-22T03:16:07.141Z,-4.5
2018-12-22T03:16:57.862Z,-4.4
2018-12-22T03:17:47.744Z,-4.4
2018-12-22T03:18:37.554Z,-4.5
2018-12-22T03:19:27.862Z,-4.5
2018-12-22T03:20:17.764Z,-4.5
2018-12-22T03:21:07.455Z,-4.5
2018-12-22T03:21:57.326Z,-4.4
2018-12-22T03:22:47.890Z,-4.5
2018-12-22T03:23:38.152Z,-4.4
2018-12-22T03:24:28.060Z,-4.4
2018-12-22T03:25:18.333Z,-4.4
2018-12-22T03:26:08.334Z,-4.4
2018-12-22T03:26:58.417Z,-4.4
2018-12-22T03:27:49.202Z,-4.4
2018-12-22T03:28:38.715Z,-4.4
2018-12-22T03:29:28.544Z,-4.4
2018-12-22T03:30:19.130Z,-4.5
2018-12-22T03:31:09.108Z,-4.5
2018-12-22T03:31:59.307Z,-4.5
2018-12-22T03:32:49.316Z,-4.5
2018-12-22T03:33:39.139Z,-4.5
2018-12-22T03:34:28.884Z,-4.6
2018-12-22T03:35:19.249Z,-4.5
2018-12-22T03:36:09.499Z,-4.6
2018-12-22T03:36:59.541Z,-4.5
2018-12-22T03:37:49.608Z,-4.5
2018-12-22T03:38:39.681Z,-4.5
2018-12-22T03:39:29.704Z,-4.5
2018-12-22T03:40:19.780Z,-4.4
2018-12-22T03:41:09.827Z,-4.6
2018-12-22T03:41:59.895Z,-4.6
2018-12-22T03:42:49.943Z,-4.6
2018-12-22T03:43:39.450Z,-4.5
2018-12-22T03:44:29.203Z,-4.5
2018-12-22T03:45:20.113Z,-4.6
2018-12-22T03:46:09.902Z,-4.6
2018-12-22T03:47:00.204Z,-4.6
2018-12-22T03:47:50.000Z,-4.6
2018-12-22T03:48:40.156Z,-4.6
2018-12-22T03:49:30.445Z,-4.6
2018-12-22T03:50:20.435Z,-4.6
2018-12-22T03:51:10.208Z,-4.6
2018-12-22T03:52:00.061Z,-4.6
2018-12-22T03:52:50.643Z,-4.6
2018-12-22T03:53:40.684Z,-4.6
2018-12-22T03:54:30.507Z,-4.6
2018-12-22T03:55:20.223Z,-4.5
2018-12-22T03:56:10.575Z,-4.5
2018-12-22T03:57:01.155Z,-4.6
2018-12-22T03:57:50.394Z,-4.6
2018-12-22T03:58:40.449Z,-4.5
2018-12-22T03:59:31.332Z,-4.5
2018-12-22T04:00:20.275Z,-4.5
2018-12-22T04:01:11.173Z,-4.5
2018-12-22T04:02:01.227Z,-4.5
2018-12-22T04:02:50.743Z,-4.5
2018-12-22T04:03:41.192Z,-4.5
2018-12-22T04:04:31.404Z,-4.5
2018-12-22T04:05:21.337Z,-4.5
2018-12-22T04:06:11.567Z,-4.6
2018-12-22T04:07:00.771Z,-4.5
2018-12-22T04:07:51.336Z,-4.5
2018-12-22T04:08:41.793Z,-4.4
2018-12-22T04:09:31.786Z,-4.4
2018-12-22T04:10:21.329Z,-4.5
2018-12-22T04:11:11.578Z,-4.4
2018-12-22T04:12:01.933Z,-4.5
2018-12-22T04:12:51.441Z,-4.4
2018-12-22T04:13:42.435Z,-4.4
2018-12-22T04:14:32.042Z,-4.4
2018-12-22T04:15:21.566Z,-4.4
2018-12-22T04:16:11.672Z,-4.4
2018-12-22T04:17:01.699Z,-4.4
2018-12-22T04:17:52.010Z,-4.4
2018-12-22T04:18:42.348Z,-4.4
2018-12-22T04:19:31.597Z,-4.4
2018-12-22T04:20:22.476Z,-4.4
2018-12-22T04:21:12.522Z,-4.4
2018-12-22T04:22:02.462Z,-4.4
2018-12-22T04:22:52.625Z,-4.4
2018-12-22T04:23:42.912Z,-4.4
2018-12-22T04:24:32.769Z,-4.4
2018-12-22T04:25:23.089Z,-4.4
2018-12-22T04:26:12.079Z,-4.4
2018-12-22T04:27:02.662Z,-4.4
2018-12-22T04:27:52.979Z,-4.4
2018-12-22T04:28:43.041Z,-4.4
2018-12-22T04:29:36.782Z,-4.5
2018-12-22T04:30:23.203Z,-4.4
2018-12-22T04:31:12.919Z,-4.5
2018-12-22T04:32:03.279Z,-4.5
2018-12-22T04:32:53.046Z,-4.4
2018-12-22T04:33:43.400Z,-4.4
2018-12-22T04:34:33.426Z,-4.4
2018-12-22T04:35:23.483Z,-4.4
2018-12-22T04:36:13.503Z,-4.4
2018-12-22T04:37:03.608Z,-4.4
2018-12-22T04:37:53.648Z,-4.4
2018-12-22T04:38:43.703Z,-4.4
2018-12-22T04:39:33.508Z,-4.3
2018-12-22T04:40:23.263Z,-4.3
2018-12-22T04:41:13.369Z,-4.3
2018-12-22T04:42:03.927Z,-4.4
2018-12-22T04:42:54.044Z,-4.4
2018-12-22T04:43:44.037Z,-4.4
2018-12-22T04:44:33.820Z,-4.4
2018-12-22T05:01:53.934Z,-4.3
2018-12-22T05:02:43.969Z,-4.3
2018-12-22T05:03:34.044Z,-4.3
2018-12-22T05:04:24.071Z,-4.3
2018-12-22T05:05:14.425Z,-4.4
2018-12-22T05:06:04.474Z,-4.4
2018-12-22T05:06:54.549Z,-4.4
2018-12-22T05:07:44.582Z,-4.4
2018-12-22T05:08:34.691Z,-4.4
2018-12-22T05:09:24.507Z,-4.4
2018-12-22T05:10:14.459Z,-4.4
2018-12-22T05:11:04.933Z,-4.4
2018-12-22T05:11:54.843Z,-4.5
2018-12-22T05:12:44.073Z,-4.5
2018-12-22T05:13:35.016Z,-4.4
2018-12-22T05:14:25.039Z,-4.4
2018-12-22T05:15:15.098Z,-4.4
2018-12-22T05:16:05.169Z,-4.4
2018-12-22T05:16:54.917Z,-4.5
2018-12-22T05:17:45.233Z,-4.5
2018-12-22T05:18:35.283Z,-4.6
2018-12-22T05:19:24.813Z,-4.5
2018-12-22T05:20:17.170Z,-4.6
2018-12-22T05:21:05.460Z,-4.5
2018-12-22T05:21:55.243Z,-4.5
2018-12-22T05:22:45.627Z,-4.5
2018-12-22T05:23:35.350Z,-4.5
2018-12-22T05:24:25.746Z,-4.6
2018-12-22T05:25:15.465Z,-4.6
2018-12-22T05:26:05.522Z,-4.6
2018-12-22T05:26:55.860Z,-4.6
2018-12-22T05:27:45.627Z,-4.6
2018-12-22T05:28:35.412Z,-4.6
2018-12-22T05:29:26.026Z,-4.6
2018-12-22T05:30:15.800Z,-4.6
2018-12-22T05:31:06.141Z,-4.6
2018-12-22T05:31:56.194Z,-4.6
2018-12-22T05:32:46.548Z,-4.6
2018-12-22T05:33:36.042Z,-4.6
2018-12-22T05:34:26.514Z,-4.6
2018-12-22T05:35:16.009Z,-4.6
2018-12-22T05:36:06.421Z,-4.6
2018-12-22T05:36:56.540Z,-4.6
2018-12-22T05:37:46.618Z,-4.6
2018-12-22T05:38:36.094Z,-4.6
2018-12-22T05:39:26.718Z,-4.5
2018-12-22T05:40:16.488Z,-4.5
2018-12-22T05:41:06.571Z,-4.5
2018-12-22T05:41:56.411Z,-4.5
2018-12-22T05:42:46.900Z,-4.5
2018-12-22T05:43:36.978Z,-4.5
2018-12-22T05:44:27.040Z,-4.5
2018-12-22T05:45:17.090Z,-4.6
2018-12-22T05:46:06.600Z,-4.6
2018-12-22T05:46:57.236Z,-4.6
2018-12-22T05:47:47.073Z,-4.6
2018-12-22T05:48:37.323Z,-4.6
2018-12-22T05:49:27.112Z,-4.6
2018-12-22T05:50:17.431Z,-4.6
2018-12-22T05:51:07.213Z,-4.8
2018-12-22T05:51:57.545Z,-4.9
2018-12-22T05:52:47.593Z,-5.1
2018-12-22T05:53:37.657Z,-5.1
2018-12-22T05:54:27.747Z,-5
2018-12-22T05:55:17.490Z,-5
2018-12-22T05:56:07.832Z,-5
2018-12-22T05:56:57.337Z,-4.9
2018-12-22T05:57:47.385Z,-4.9
2018-12-22T05:58:37.967Z,-4.8
2018-12-22T05:59:27.790Z,-4.7
2018-12-22T06:00:17.275Z,-4.7
2018-12-22T06:01:08.237Z,-4.7
2018-12-22T06:01:57.944Z,-4.8
2018-12-22T06:02:48.272Z,-4.7
2018-12-22T06:03:37.784Z,-4.7
2018-12-22T06:04:28.394Z,-4.7
2018-12-22T06:05:19.788Z,-4.6
2018-12-22T06:06:08.227Z,-4.6
2018-12-22T06:06:57.999Z,-4.6
2018-12-22T06:07:48.340Z,-4.7
2018-12-22T06:08:38.386Z,-4.7
2018-12-22T06:09:28.447Z,-4.7
2018-12-22T06:10:18.797Z,-4.7
2018-12-22T06:11:08.557Z,-4.7
2018-12-22T06:11:58.739Z,-4.6
2018-12-22T06:12:48.961Z,-4.6
2018-12-22T06:13:39.006Z,-4.6
2018-12-22T06:14:29.066Z,-4.6
2018-12-22T06:15:18.282Z,-4.6
2018-12-22T06:16:08.637Z,-4.8
2018-12-22T06:16:59.237Z,-4.8
2018-12-22T06:17:49.296Z,-4.7
2018-12-22T06:18:39.076Z,-4.7
2018-12-22T06:19:28.854Z,-4.7
2018-12-22T06:20:18.916Z,-4.7
2018-12-22T06:21:09.241Z,-4.8
2018-12-22T06:21:59.339Z,-4.8
2018-12-22T06:22:49.381Z,-4.8
2018-12-22T06:23:39.419Z,-4.8
2018-12-22T06:24:29.517Z,-4.8
2018-12-22T06:25:19.847Z,-4.8
2018-12-22T06:26:09.623Z,-4.8
2018-12-22T06:26:59.078Z,-4.9
2018-12-22T06:27:49.698Z,-4.9
2018-12-22T06:28:39.738Z,-5
2018-12-22T06:29:30.085Z,-5.1
2018-12-22T06:30:20.136Z,-5.2
2018-12-22T06:31:09.636Z,-5.1
2018-12-22T06:31:59.976Z,-5
2018-12-22T06:32:49.758Z,-4.9
2018-12-22T06:33:40.373Z,-4.9
2018-12-22T06:34:29.600Z,-4.9
2018-12-22T06:35:20.480Z,-4.8
2018-12-22T06:36:09.975Z,-4.9
2018-12-22T06:37:00.315Z,-4.9
2018-12-22T06:37:50.365Z,-4.9
2018-12-22T06:38:42.275Z,-4.9
2018-12-22T06:39:30.485Z,-4.9
2018-12-22T06:40:20.503Z,-5.1
2018-12-22T06:41:10.895Z,-5
2018-12-22T06:42:00.383Z,-4.9
2018-12-22T06:42:50.445Z,-4.8
2018-12-22T06:43:40.487Z,-4.8
2018-12-22T06:44:31.119Z,-4.8
2018-12-22T06:45:20.660Z,-4.8
2018-12-22T06:46:11.038Z,-4.8
2018-12-22T06:47:01.283Z,-4.8
2018-12-22T06:47:51.047Z,-4.8
2018-12-22T06:48:41.113Z,-4.8
2018-12-22T06:49:31.435Z,-4.8
2018-12-22T06:50:21.501Z,-4.8
2018-12-22T06:51:11.544Z,-4.8
2018-12-22T06:52:01.414Z,-4.9
2018-12-22T06:52:51.426Z,-4.8
2018-12-22T06:53:43.982Z,-4.7
2018-12-22T06:54:31.813Z,-4.6
2018-12-22T06:55:22.074Z,-4.7
2018-12-22T06:56:11.887Z,-4.7
2018-12-22T06:57:01.936Z,-4.6
2018-12-22T06:57:51.716Z,-4.6
2018-12-22T06:58:42.124Z,-4.6
2018-12-22T06:59:32.151Z,-4.6
2018-12-22T07:00:21.899Z,-4.5
2018-12-22T07:01:12.554Z,-4.6
2018-12-22T07:02:02.294Z,-4.6
2018-12-22T07:02:52.403Z,-4.6
2018-12-22T07:03:42.379Z,-4.6
2018-12-22T07:04:32.280Z,-4.6
2018-12-22T07:05:22.216Z,-4.6
2018-12-22T07:06:12.527Z,-4.6
2018-12-22T07:07:02.608Z,-4.5
2018-12-22T07:07:52.668Z,-4.4
2018-12-22T07:08:42.443Z,-4.4
2018-12-22T07:09:32.506Z,-4.4
2018-12-22T07:10:22.297Z,-4.3
2018-12-22T07:11:13.183Z,-4.3
2018-12-22T07:12:02.938Z,-4.3
2018-12-22T07:12:51.968Z,-4.4
2018-12-22T07:13:42.860Z,-4.4
2018-12-22T07:14:32.574Z,-4.3
2018-12-22T07:15:23.178Z,-4.3
2018-12-22T07:16:12.975Z,-4.3
2018-12-22T07:17:03.028Z,-4.4
2018-12-22T07:17:53.056Z,-4.3
2018-12-22T07:18:42.847Z,-4.2
2018-12-22T07:19:33.480Z,-4.2
2018-12-22T07:20:23.510Z,-4.1
2018-12-22T07:21:13.595Z,-4.1
2018-12-22T07:22:02.870Z,-4
2018-12-22T07:22:53.162Z,-4
2018-12-22T07:23:43.727Z,-4.1
2018-12-22T07:24:33.527Z,-4.1
2018-12-22T07:25:23.857Z,-4.1
2018-12-22T07:26:13.334Z,-4.2
2018-12-22T07:27:03.029Z,-4.1
2018-12-22T07:27:53.737Z,-4.1
2018-12-22T07:28:43.799Z,-4.1
2018-12-22T07:29:33.859Z,-4.1
2018-12-22T07:30:29.239Z,-4.1
2018-12-22T07:31:13.952Z,-4.2
2018-12-22T07:32:04.012Z,-4.1
2018-12-22T07:33:00.150Z,-4.2
2018-12-22T07:33:44.146Z,-4.3
2018-12-22T07:34:33.644Z,-4.3
2018-12-22T07:35:24.064Z,-4.3
2018-12-22T07:36:14.309Z,-4.4
2018-12-22T07:37:04.354Z,-4.4
2018-12-22T07:37:54.674Z,-4.5
2018-12-22T07:38:44.826Z,-4.4
2018-12-22T07:39:34.315Z,-4.4
2018-12-22T07:40:24.379Z,-4.4
2018-12-22T07:41:14.438Z,-4.4
2018-12-22T07:42:04.734Z,-4.3
2018-12-22T07:42:54.547Z,-4.2
2018-12-22T07:43:44.332Z,-4.1
2018-12-22T07:44:34.661Z,-4.1
2018-12-22T07:45:24.437Z,-4.1
2018-12-22T07:46:14.971Z,-4.1
2018-12-22T07:47:04.830Z,-4.1
2018-12-22T07:47:54.601Z,-4.1
2018-12-22T07:48:44.988Z,-4.1
2018-12-22T07:49:34.725Z,-4.3
2018-12-22T07:50:25.066Z,-4.3
2018-12-22T07:51:14.816Z,-4.4
2018-12-22T07:52:05.641Z,-4.4
2018-12-22T07:52:55.702Z,-4.4
2018-12-22T07:53:45.474Z,-4.4
2018-12-22T07:54:35.529Z,-4.3
2018-12-22T07:55:25.856Z,-4.2
2018-12-22T07:56:15.639Z,-4.1
2018-12-22T07:57:05.968Z,-4.1
2018-12-22T07:57:55.748Z,-4
2018-12-22T07:58:46.093Z,-4.1
2018-12-22T07:59:35.857Z,-4
2018-12-22T08:00:25.645Z,-3.9
2018-12-22T08:01:16.303Z,-4
2018-12-22T08:02:06.047Z,-3.9
2018-12-22T08:02:56.338Z,-4
2018-12-22T08:03:46.157Z,-4.1
2018-12-22T08:04:36.199Z,-4
2018-12-22T08:05:26.257Z,-3.9
2018-12-22T08:06:15.844Z,-3.8
2018-12-22T08:07:06.642Z,-4.1
2018-12-22T08:07:56.141Z,-4
2018-12-22T08:08:46.278Z,-4
2018-12-22T08:09:36.821Z,-3.9
2018-12-22T08:10:26.597Z,-3.9
2018-12-22T08:11:16.657Z,-3.9
2018-12-22T08:12:06.152Z,-3.9
2018-12-22T08:12:57.039Z,-3.9
2018-12-22T08:13:47.094Z,-4.2
2018-12-22T08:14:36.964Z,-4.3
2018-12-22T08:15:27.204Z,-4.1
2018-12-22T08:16:17.289Z,-3.9
2018-12-22T08:17:07.056Z,-4
2018-12-22T08:17:57.382Z,-3.9
2018-12-22T08:18:47.437Z,-4
2018-12-22T08:19:37.559Z,-4.1
2018-12-22T08:20:26.789Z,-4.2
2018-12-22T08:21:17.137Z,-4.1
2018-12-22T08:22:09.562Z,-3.8
2018-12-22T08:22:57.241Z,-3.6
2018-12-22T08:23:46.741Z,-3.6
2018-12-22T08:24:37.556Z,-3.6
2018-12-22T08:25:27.609Z,-3.6
2018-12-22T08:26:18.256Z,-3.6
2018-12-22T08:27:07.716Z,-3.4
2018-12-22T08:27:57.503Z,-3.2
2018-12-22T08:28:47.848Z,-3.3
2018-12-22T08:29:37.892Z,-3.4
2018-12-22T08:30:28.218Z,-3.5
2018-12-22T08:31:17.998Z,-3.6
2018-12-22T08:32:08.344Z,-3.5
2018-12-22T08:32:58.395Z,-3.4
2018-12-22T08:33:48.181Z,-3.5
2018-12-22T08:34:38.235Z,-3.5
2018-12-22T08:35:28.542Z,-3.4
2018-12-22T08:36:18.228Z,-3.6
2018-12-22T08:37:08.700Z,-3.4
2018-12-22T08:37:58.448Z,-3.5
2018-12-22T08:38:48.788Z,-3.6
2018-12-22T08:40:28.900Z,-3.6
2018-12-22T08:41:18.135Z,-3.4
2018-12-22T08:42:09.315Z,-3.3
2018-12-22T08:42:58.794Z,-3.1
2018-12-22T08:43:49.110Z,-3.1
2018-12-22T08:44:38.667Z,-3.1
2018-12-22T08:45:28.701Z,-3
2018-12-22T08:46:19.005Z,-3.1
2018-12-22T08:47:09.593Z,-3.2
2018-12-22T08:47:59.128Z,-3.2
2018-12-22T08:48:49.181Z,-3.3
2018-12-22T08:49:39.512Z,-3.1
2018-12-22T08:50:29.866Z,-2.9
2018-12-22T08:51:19.628Z,-2.9
2018-12-22T08:52:09.655Z,-2.8
2018-12-22T08:52:59.575Z,-2.7
2018-12-22T08:53:49.232Z,-2.7
2018-12-22T08:54:39.849Z,-2.8
2018-12-22T08:55:30.164Z,-2.8
2018-12-22T08:56:19.692Z,-2.6
2018-12-22T08:57:09.459Z,-2.5
2018-12-22T08:58:00.159Z,-2.6
2018-12-22T08:58:50.149Z,-2.6
2018-12-22T08:59:40.164Z,-2.7
2018-12-22T09:00:30.254Z,-2.9
2018-12-22T09:16:20.085Z,-2.4
2018-12-22T09:17:10.157Z,-2.3
2018-12-22T09:18:00.472Z,-2.3
2018-12-22T09:18:50.215Z,-2.4
2018-12-22T09:19:40.302Z,-2.4
2018-12-22T09:20:32.487Z,-2.2
2018-12-22T09:21:20.780Z,-1.9
2018-12-22T09:22:10.752Z,-1.8
2018-12-22T09:23:00.526Z,-1.8
2018-12-22T09:23:51.128Z,-1.9
2018-12-22T09:24:40.918Z,-1.8
2018-12-22T09:25:31.232Z,-1.7
2018-12-22T09:26:21.083Z,-1.6
2018-12-22T09:27:10.796Z,-1.6
2018-12-22T09:28:01.134Z,-1.4
2018-12-22T09:28:50.920Z,-1.3
2018-12-22T09:29:40.985Z,-1.3
2018-12-22T09:30:31.032Z,-1.3
2018-12-22T09:31:20.522Z,-1.3
2018-12-22T09:32:11.149Z,-1.2
2018-12-22T09:33:01.491Z,-1.1
2018-12-22T09:33:51.034Z,-1.2
2018-12-22T09:34:41.309Z,-1.3
2018-12-22T09:35:31.096Z,-1.1
2018-12-22T09:36:21.694Z,-1.1
2018-12-22T09:37:11.822Z,-1.2
2018-12-22T09:38:01.531Z,-1.2
2018-12-22T09:38:51.835Z,-1.3
2018-12-22T09:39:41.919Z,-1.2
2018-12-22T09:40:31.696Z,-1.1
2018-12-22T09:41:21.300Z,-0.8
2018-12-22T09:43:52.031Z,-0.8
2018-12-22T09:44:41.517Z,-0.8
2018-12-22T09:45:31.503Z,-0.8
2018-12-22T09:46:21.818Z,-0.8
2018-12-22T09:47:12.175Z,-0.7
2018-12-22T09:48:01.966Z,-0.8
2018-12-22T09:48:52.541Z,-0.6
2018-12-22T09:49:42.058Z,-0.8
2018-12-22T09:50:31.873Z,-0.6
2018-12-22T09:51:22.723Z,-0.3
2018-12-22T09:52:11.968Z,-0.3
2018-12-22T09:53:02.856Z,-0.2
2018-12-22T09:53:52.893Z,-0.3
2018-12-22T09:54:42.942Z,-0.1
2018-12-22T09:55:33.008Z,-0.1
2018-12-22T09:56:22.867Z,0.1
2018-12-22T09:57:12.875Z,0.4
2018-12-22T09:58:02.893Z,0.5
2018-12-22T09:58:52.957Z,0.2
2018-12-22T09:59:43.000Z,0.2
2018-12-22T10:00:32.787Z,0.3
2018-12-22T10:01:23.115Z,0.3
2018-12-22T10:02:13.457Z,0.2
2018-12-22T10:03:03.505Z,0.1
2018-12-22T10:03:53.557Z,0.2
2018-12-22T10:04:43.345Z,0.4
2018-12-22T10:05:33.667Z,0.4
2018-12-22T10:06:23.765Z,0.6
2018-12-22T10:07:13.544Z,0.7
2018-12-22T10:08:03.850Z,0.8
2018-12-22T10:08:53.902Z,1
2018-12-22T10:09:43.727Z,1.1
2018-12-22T10:10:34.008Z,1.2
2018-12-22T10:11:24.064Z,1.4
2018-12-22T10:12:13.849Z,1.2
2018-12-22T10:13:03.637Z,1.1
2018-12-22T10:13:53.976Z,1.2
2018-12-22T10:14:43.471Z,1.1
2018-12-22T10:15:34.469Z,0.8
2018-12-22T10:16:24.523Z,0.7
2018-12-22T10:17:14.477Z,0.6
2018-12-22T10:18:04.654Z,0.5
2018-12-22T10:18:54.366Z,0.8
2018-12-22T10:19:44.633Z,0.8
2018-12-22T10:20:34.697Z,0.8
2018-12-22T10:21:25.013Z,0.4
2018-12-22T10:22:16.836Z,0.6
2018-12-22T10:23:05.116Z,0.8
2018-12-22T10:23:54.643Z,0.9
2018-12-22T10:24:44.709Z,1
2018-12-22T10:25:35.291Z,0.9
2018-12-22T10:26:25.343Z,0.9
2018-12-22T10:27:15.146Z,0.9
2018-12-22T10:28:05.221Z,1.2
2018-12-22T10:28:55.270Z,1.3
2018-12-22T10:29:45.055Z,1.3
2018-12-22T10:30:34.815Z,1.3
2018-12-22T10:31:25.163Z,1.2
2018-12-22T10:32:14.931Z,1.3
2018-12-22T10:33:05.542Z,1.2
2018-12-22T10:33:55.449Z,1
2018-12-22T10:34:45.665Z,0.9
2018-12-22T10:35:35.540Z,1
2018-12-22T10:36:25.775Z,1.1
2018-12-22T10:37:15.845Z,1.1
2018-12-22T10:38:05.336Z,1.1
2018-12-22T10:38:55.935Z,1.3
2018-12-22T10:39:45.735Z,1.3
2018-12-22T10:40:35.898Z,1.2
2018-12-22T10:41:25.842Z,1.1
2018-12-22T10:42:15.955Z,1.1
2018-12-22T10:43:05.220Z,1.4
2018-12-22T10:43:55.807Z,1.4
2018-12-22T10:44:46.120Z,1.3
2018-12-22T10:45:35.858Z,1.4
2018-12-22T10:46:25.984Z,1.4
2018-12-22T10:47:15.980Z,1.3
2018-12-22T10:48:06.090Z,1.5
2018-12-22T10:48:56.624Z,1.4
2018-12-22T10:49:46.207Z,1.5
2018-12-22T10:50:36.744Z,1.6
2018-12-22T10:51:26.902Z,1.4
2018-12-22T10:52:16.124Z,1.3
2018-12-22T10:53:05.893Z,1.3
2018-12-22T10:53:56.489Z,1.4
2018-12-22T10:54:46.536Z,1.3
2018-12-22T10:55:36.607Z,1.3
2018-12-22T10:56:26.383Z,1.2
2018-12-22T10:57:16.720Z,1.3
2018-12-22T10:58:06.793Z,1.3
2018-12-22T10:58:56.889Z,1.3
2018-12-22T10:59:46.635Z,1.3
2018-12-22T11:00:36.950Z,1.5
2018-12-22T11:01:28.972Z,1.4
2018-12-22T11:02:16.499Z,1.3
2018-12-22T11:03:07.119Z,1.3
2018-12-22T11:03:56.890Z,1.5
2018-12-22T11:04:47.275Z,1.6
2018-12-22T11:05:37.272Z,1.6
2018-12-22T11:06:27.325Z,1.6
2018-12-22T11:07:17.117Z,1.5
2018-12-22T11:08:07.464Z,1.4
2018-12-22T11:08:57.280Z,1.3
2018-12-22T11:09:47.019Z,1.4
2018-12-22T11:10:37.976Z,1.3
2018-12-22T11:11:27.681Z,1.3
2018-12-22T11:12:17.741Z,1.4
2018-12-22T11:13:07.520Z,1.5
2018-12-22T11:13:57.584Z,1.4
2018-12-22T11:14:48.206Z,1.4
2018-12-22T11:15:38.419Z,1.5
2018-12-22T11:16:27.819Z,1.5
2018-12-22T11:17:17.261Z,1.1
2018-12-22T11:18:08.078Z,1
2018-12-22T11:18:58.655Z,1.3
2018-12-22T11:19:48.717Z,1.3
2018-12-22T11:20:38.764Z,1.3
2018-12-22T11:21:28.834Z,1.1
2018-12-22T11:22:18.894Z,1.4
2018-12-22T11:23:08.972Z,1.3
2018-12-22T11:23:58.725Z,1.3
2018-12-22T11:24:48.787Z,1.4
2018-12-22T11:25:38.835Z,1.5
2018-12-22T11:26:29.170Z,1.5
2018-12-22T11:27:19.238Z,1.4
2018-12-22T11:28:08.728Z,1.3
2018-12-22T11:28:59.063Z,1.1
2018-12-22T11:29:49.113Z,1.2
2018-12-22T11:30:38.910Z,1.4
2018-12-22T11:31:37.308Z,1.4
2018-12-22T11:32:19.288Z,1.4
2018-12-22T11:33:09.639Z,1.4
2018-12-22T11:33:59.144Z,1.4
2018-12-22T11:34:49.563Z,1.3
2018-12-22T11:35:39.530Z,1.4
2018-12-22T11:36:29.842Z,1.6
2018-12-22T11:37:20.262Z,1.6
2018-12-22T11:38:09.406Z,1.7
2018-12-22T11:39:00.146Z,1.8
2018-12-22T11:39:50.082Z,1.8
2018-12-22T11:40:40.177Z,1.9
2018-12-22T11:41:29.949Z,1.8
2018-12-22T11:42:20.249Z,1.6
2018-12-22T11:43:10.020Z,1.5
2018-12-22T11:43:59.802Z,1.6
2018-12-22T11:44:50.131Z,1.8
2018-12-22T11:45:40.467Z,1.9
2018-12-22T11:46:30.264Z,2.2
2018-12-22T11:47:20.579Z,2.1
2018-12-22T11:48:10.651Z,2.1
2018-12-22T11:49:00.699Z,1.9
2018-12-22T11:49:50.749Z,1.7
2018-12-22T11:50:41.051Z,1.8
2018-12-22T11:51:30.361Z,1.9
2018-12-22T11:52:20.647Z,2
2018-12-22T11:53:10.706Z,1.9
2018-12-22T11:54:01.043Z,1.9
2018-12-22T11:54:50.534Z,1.9
2018-12-22T11:55:40.606Z,1.9
2018-12-22T11:56:30.889Z,2
2018-12-22T11:57:20.989Z,2.1
2018-12-22T11:58:11.038Z,2.1
2018-12-22T11:59:01.382Z,2.1
2018-12-22T11:59:51.448Z,2.1
2018-12-22T12:00:41.513Z,1.9
2018-12-22T12:01:30.986Z,1.8
2018-12-22T12:02:21.608Z,1.8
2018-12-22T12:03:11.398Z,1.8
2018-12-22T12:04:01.446Z,1.9